sensor_id;sensor_type;location;lat;lon;timestamp;P1;durP1;ratioP1;P2;durP2;ratioP2
9720;SDS011;4899;42.644;23.366;2023-01-08T00:07:37;12.77;;;8.90;;
9720;SDS011;4899;42.644;23.366;2023-01-08T00:10:02;12.27;;;8.50;;
9720;SDS011;4899;42.644;23.366;2023-01-08T00:12:28;10.33;;;8.07;;
9720;SDS011;4899;42.644;23.366;2023-01-08T00:14:53;9.80;;;8.07;;
9720;SDS011;4899;42.644;23.366;2023-01-08T00:17:19;9.40;;;8.00;;
9720;SDS011;4899;42.644;23.366;2023-01-08T00:19:44;10.93;;;8.00;;
9720;SDS011;4899;42.644;23.366;2023-01-08T00:22:10;11.23;;;7.77;;
9720;SDS011;4899;42.644;23.366;2023-01-08T00:24:35;11.57;;;8.20;;
9720;SDS011;4899;42.644;23.366;2023-01-08T00:27:01;8.30;;;7.20;;
9720;SDS011;4899;42.644;23.366;2023-01-08T00:29:26;13.33;;;9.00;;
9720;SDS011;4899;42.644;23.366;2023-01-08T00:31:52;12.53;;;8.80;;
9720;SDS011;4899;42.644;23.366;2023-01-08T00:34:17;15.63;;;11.07;;
9720;SDS011;4899;42.644;23.366;2023-01-08T00:36:42;19.70;;;11.17;;
9720;SDS011;4899;42.644;23.366;2023-01-08T00:39:08;18.53;;;11.80;;
9720;SDS011;4899;42.644;23.366;2023-01-08T00:41:33;16.30;;;10.93;;
9720;SDS011;4899;42.644;23.366;2023-01-08T00:43:59;21.23;;;12.63;;
9720;SDS011;4899;42.644;23.366;2023-01-08T00:46:24;17.93;;;12.83;;
9720;SDS011;4899;42.644;23.366;2023-01-08T00:48:50;22.40;;;15.73;;
9720;SDS011;4899;42.644;23.366;2023-01-08T00:51:15;24.67;;;15.87;;
9720;SDS011;4899;42.644;23.366;2023-01-08T00:53:40;31.50;;;16.97;;
9720;SDS011;4899;42.644;23.366;2023-01-08T00:56:07;25.70;;;16.33;;
9720;SDS011;4899;42.644;23.366;2023-01-08T00:58:33;23.13;;;15.47;;
9720;SDS011;4899;42.644;23.366;2023-01-08T01:00:59;24.10;;;16.80;;
9720;SDS011;4899;42.644;23.366;2023-01-08T01:03:25;27.73;;;16.30;;
9720;SDS011;4899;42.644;23.366;2023-01-08T01:05:58;26.73;;;18.53;;
9720;SDS011;4899;42.644;23.366;2023-01-08T01:08:27;23.83;;;17.17;;
9720;SDS011;4899;42.644;23.366;2023-01-08T01:10:52;25.90;;;16.73;;
9720;SDS011;4899;42.644;23.366;2023-01-08T01:13:18;27.73;;;16.60;;
9720;SDS011;4899;42.644;23.366;2023-01-08T01:15:43;24.20;;;16.87;;
9720;SDS011;4899;42.644;23.366;2023-01-08T01:18:09;29.60;;;16.80;;
9720;SDS011;4899;42.644;23.366;2023-01-08T01:20:35;26.73;;;18.47;;
9720;SDS011;4899;42.644;23.366;2023-01-08T01:23:00;27.77;;;18.83;;
9720;SDS011;4899;42.644;23.366;2023-01-08T01:25:28;25.77;;;19.17;;
9720;SDS011;4899;42.644;23.366;2023-01-08T01:27:53;31.20;;;19.47;;
9720;SDS011;4899;42.644;23.366;2023-01-08T01:30:19;29.43;;;18.60;;
9720;SDS011;4899;42.644;23.366;2023-01-08T01:48:09;18.20;;;11.93;;
9720;SDS011;4899;42.644;23.366;2023-01-08T01:50:40;16.90;;;11.23;;
9720;SDS011;4899;42.644;23.366;2023-01-08T01:53:18;14.90;;;10.07;;
9720;SDS011;4899;42.644;23.366;2023-01-08T01:55:48;16.17;;;10.20;;
9720;SDS011;4899;42.644;23.366;2023-01-08T02:00:50;12.27;;;9.40;;
9720;SDS011;4899;42.644;23.366;2023-01-08T02:03:19;12.20;;;8.30;;
9720;SDS011;4899;42.644;23.366;2023-01-08T02:05:50;13.27;;;8.87;;
9720;SDS011;4899;42.644;23.366;2023-01-08T02:08:30;12.27;;;8.20;;
9720;SDS011;4899;42.644;23.366;2023-01-08T02:13:48;10.00;;;7.20;;
9720;SDS011;4899;42.644;23.366;2023-01-08T02:16:20;9.50;;;6.63;;
9720;SDS011;4899;42.644;23.366;2023-01-08T02:18:59;8.57;;;6.80;;
9720;SDS011;4899;42.644;23.366;2023-01-08T02:21:44;8.37;;;6.30;;
9720;SDS011;4899;42.644;23.366;2023-01-08T02:27:07;10.50;;;7.17;;
9720;SDS011;4899;42.644;23.366;2023-01-08T02:29:33;8.93;;;5.93;;
9720;SDS011;4899;42.644;23.366;2023-01-08T02:31:59;7.93;;;6.10;;
9720;SDS011;4899;42.644;23.366;2023-01-08T02:34:25;8.00;;;6.40;;
9720;SDS011;4899;42.644;23.366;2023-01-08T02:36:53;7.93;;;5.80;;
9720;SDS011;4899;42.644;23.366;2023-01-08T02:47:44;6.60;;;5.57;;
9720;SDS011;4899;42.644;23.366;2023-01-08T02:50:22;7.67;;;5.93;;
9720;SDS011;4899;42.644;23.366;2023-01-08T02:52:54;11.30;;;6.90;;
9720;SDS011;4899;42.644;23.366;2023-01-08T02:55:26;9.57;;;6.27;;
9720;SDS011;4899;42.644;23.366;2023-01-08T02:57:53;8.67;;;6.37;;
9720;SDS011;4899;42.644;23.366;2023-01-08T03:00:19;6.97;;;5.60;;
9720;SDS011;4899;42.644;23.366;2023-01-08T03:02:45;11.90;;;6.57;;
9720;SDS011;4899;42.644;23.366;2023-01-08T03:05:16;7.87;;;5.97;;
9720;SDS011;4899;42.644;23.366;2023-01-08T03:07:49;9.43;;;6.07;;
9720;SDS011;4899;42.644;23.366;2023-01-08T03:10:15;8.73;;;6.13;;
9720;SDS011;4899;42.644;23.366;2023-01-08T03:12:43;9.60;;;7.47;;
9720;SDS011;4899;42.644;23.366;2023-01-08T03:15:17;12.90;;;8.67;;
9720;SDS011;4899;42.644;23.366;2023-01-08T03:17:48;17.07;;;10.13;;
9720;SDS011;4899;42.644;23.366;2023-01-08T03:20:18;15.57;;;9.93;;
9720;SDS011;4899;42.644;23.366;2023-01-08T03:22:48;12.17;;;8.63;;
9720;SDS011;4899;42.644;23.366;2023-01-08T03:25:19;9.13;;;7.37;;
9720;SDS011;4899;42.644;23.366;2023-01-08T03:27:49;10.03;;;7.43;;
9720;SDS011;4899;42.644;23.366;2023-01-08T03:30:18;8.40;;;6.07;;
9720;SDS011;4899;42.644;23.366;2023-01-08T03:32:45;10.50;;;7.63;;
9720;SDS011;4899;42.644;23.366;2023-01-08T03:35:12;11.17;;;7.37;;
9720;SDS011;4899;42.644;23.366;2023-01-08T03:37:43;8.63;;;6.57;;
9720;SDS011;4899;42.644;23.366;2023-01-08T03:40:15;7.60;;;5.90;;
9720;SDS011;4899;42.644;23.366;2023-01-08T03:42:45;8.83;;;6.50;;
9720;SDS011;4899;42.644;23.366;2023-01-08T03:45:10;9.93;;;6.57;;
9720;SDS011;4899;42.644;23.366;2023-01-08T03:47:36;7.73;;;6.23;;
9720;SDS011;4899;42.644;23.366;2023-01-08T03:50:04;7.60;;;6.77;;
9720;SDS011;4899;42.644;23.366;2023-01-08T03:52:33;8.07;;;6.77;;
9720;SDS011;4899;42.644;23.366;2023-01-08T03:54:59;9.10;;;7.13;;
9720;SDS011;4899;42.644;23.366;2023-01-08T03:57:24;11.80;;;7.27;;
9720;SDS011;4899;42.644;23.366;2023-01-08T03:59:50;8.93;;;6.47;;
9720;SDS011;4899;42.644;23.366;2023-01-08T04:02:15;7.67;;;6.00;;
9720;SDS011;4899;42.644;23.366;2023-01-08T04:04:41;8.57;;;6.33;;
9720;SDS011;4899;42.644;23.366;2023-01-08T04:07:06;6.87;;;6.13;;
9720;SDS011;4899;42.644;23.366;2023-01-08T04:09:35;12.17;;;6.00;;
9720;SDS011;4899;42.644;23.366;2023-01-08T04:12:00;7.37;;;5.87;;
9720;SDS011;4899;42.644;23.366;2023-01-08T04:14:26;9.03;;;6.27;;
9720;SDS011;4899;42.644;23.366;2023-01-08T04:16:51;9.67;;;7.03;;
9720;SDS011;4899;42.644;23.366;2023-01-08T04:19:17;10.33;;;7.10;;
9720;SDS011;4899;42.644;23.366;2023-01-08T04:21:42;9.60;;;7.10;;
9720;SDS011;4899;42.644;23.366;2023-01-08T04:24:11;14.03;;;7.47;;
9720;SDS011;4899;42.644;23.366;2023-01-08T04:26:37;10.50;;;7.87;;
9720;SDS011;4899;42.644;23.366;2023-01-08T04:29:03;11.03;;;8.53;;
9720;SDS011;4899;42.644;23.366;2023-01-08T04:31:29;15.03;;;10.03;;
9720;SDS011;4899;42.644;23.366;2023-01-08T04:33:55;18.93;;;13.13;;
9720;SDS011;4899;42.644;23.366;2023-01-08T04:36:20;19.97;;;13.50;;
9720;SDS011;4899;42.644;23.366;2023-01-08T04:38:46;18.53;;;12.80;;
9720;SDS011;4899;42.644;23.366;2023-01-08T04:41:11;15.60;;;11.57;;
9720;SDS011;4899;42.644;23.366;2023-01-08T04:43:37;14.57;;;11.40;;
9720;SDS011;4899;42.644;23.366;2023-01-08T04:46:04;14.00;;;9.07;;
9720;SDS011;4899;42.644;23.366;2023-01-08T04:48:32;11.27;;;8.30;;
9720;SDS011;4899;42.644;23.366;2023-01-08T04:50:57;11.60;;;7.23;;
9720;SDS011;4899;42.644;23.366;2023-01-08T04:53:24;11.23;;;7.70;;
9720;SDS011;4899;42.644;23.366;2023-01-08T04:55:50;10.40;;;7.30;;
9720;SDS011;4899;42.644;23.366;2023-01-08T04:58:15;10.20;;;7.33;;
9720;SDS011;4899;42.644;23.366;2023-01-08T05:00:41;11.10;;;7.03;;
9720;SDS011;4899;42.644;23.366;2023-01-08T05:03:07;9.67;;;7.00;;
9720;SDS011;4899;42.644;23.366;2023-01-08T05:05:33;9.00;;;7.00;;
9720;SDS011;4899;42.644;23.366;2023-01-08T05:07:58;11.23;;;7.63;;
9720;SDS011;4899;42.644;23.366;2023-01-08T05:10:24;9.60;;;7.17;;
9720;SDS011;4899;42.644;23.366;2023-01-08T05:12:50;9.10;;;7.47;;
9720;SDS011;4899;42.644;23.366;2023-01-08T05:15:16;10.40;;;7.97;;
9720;SDS011;4899;42.644;23.366;2023-01-08T05:17:41;10.33;;;6.87;;
9720;SDS011;4899;42.644;23.366;2023-01-08T05:20:07;12.07;;;7.07;;
9720;SDS011;4899;42.644;23.366;2023-01-08T05:22:33;10.33;;;7.23;;
9720;SDS011;4899;42.644;23.366;2023-01-08T05:24:59;8.53;;;5.97;;
9720;SDS011;4899;42.644;23.366;2023-01-08T05:27:24;8.20;;;6.50;;
9720;SDS011;4899;42.644;23.366;2023-01-08T05:29:50;8.73;;;6.70;;
9720;SDS011;4899;42.644;23.366;2023-01-08T05:32:16;10.57;;;6.90;;
9720;SDS011;4899;42.644;23.366;2023-01-08T05:34:42;8.60;;;6.53;;
9720;SDS011;4899;42.644;23.366;2023-01-08T05:37:08;7.50;;;6.13;;
9720;SDS011;4899;42.644;23.366;2023-01-08T05:39:35;7.93;;;5.57;;
9720;SDS011;4899;42.644;23.366;2023-01-08T05:42:01;7.93;;;5.90;;
9720;SDS011;4899;42.644;23.366;2023-01-08T05:44:27;8.53;;;6.00;;
9720;SDS011;4899;42.644;23.366;2023-01-08T05:46:53;8.53;;;5.90;;
9720;SDS011;4899;42.644;23.366;2023-01-08T05:49:18;9.53;;;5.83;;
9720;SDS011;4899;42.644;23.366;2023-01-08T05:51:46;7.00;;;6.20;;
9720;SDS011;4899;42.644;23.366;2023-01-08T05:54:12;6.23;;;5.40;;
9720;SDS011;4899;42.644;23.366;2023-01-08T05:56:37;7.03;;;5.70;;
9720;SDS011;4899;42.644;23.366;2023-01-08T05:59:03;8.37;;;6.03;;
9720;SDS011;4899;42.644;23.366;2023-01-08T06:01:29;8.30;;;6.00;;
9720;SDS011;4899;42.644;23.366;2023-01-08T06:03:54;9.07;;;6.27;;
9720;SDS011;4899;42.644;23.366;2023-01-08T06:06:20;10.57;;;7.07;;
9720;SDS011;4899;42.644;23.366;2023-01-08T06:08:46;10.70;;;7.17;;
9720;SDS011;4899;42.644;23.366;2023-01-08T06:11:11;12.13;;;6.73;;
9720;SDS011;4899;42.644;23.366;2023-01-08T06:13:39;12.17;;;6.00;;
9720;SDS011;4899;42.644;23.366;2023-01-08T06:16:06;8.47;;;6.53;;
9720;SDS011;4899;42.644;23.366;2023-01-08T06:18:31;8.47;;;6.60;;
9720;SDS011;4899;42.644;23.366;2023-01-08T06:20:57;11.90;;;7.93;;
9720;SDS011;4899;42.644;23.366;2023-01-08T06:23:23;10.93;;;7.33;;
9720;SDS011;4899;42.644;23.366;2023-01-08T06:25:52;10.23;;;7.03;;
9720;SDS011;4899;42.644;23.366;2023-01-08T06:28:18;10.93;;;8.03;;
9720;SDS011;4899;42.644;23.366;2023-01-08T06:30:44;10.70;;;7.10;;
9720;SDS011;4899;42.644;23.366;2023-01-08T06:33:09;9.87;;;6.57;;
9720;SDS011;4899;42.644;23.366;2023-01-08T06:35:35;12.07;;;6.93;;
9720;SDS011;4899;42.644;23.366;2023-01-08T06:38:00;10.17;;;6.90;;
9720;SDS011;4899;42.644;23.366;2023-01-08T06:40:26;9.53;;;6.80;;
9720;SDS011;4899;42.644;23.366;2023-01-08T06:42:51;10.47;;;8.03;;
9720;SDS011;4899;42.644;23.366;2023-01-08T06:45:16;11.40;;;8.00;;
9720;SDS011;4899;42.644;23.366;2023-01-08T06:47:42;11.17;;;7.30;;
9720;SDS011;4899;42.644;23.366;2023-01-08T06:50:07;10.57;;;7.20;;
9720;SDS011;4899;42.644;23.366;2023-01-08T06:52:33;9.30;;;7.33;;
9720;SDS011;4899;42.644;23.366;2023-01-08T06:54:58;10.17;;;6.70;;
9720;SDS011;4899;42.644;23.366;2023-01-08T06:57:24;9.40;;;7.03;;
9720;SDS011;4899;42.644;23.366;2023-01-08T06:59:49;6.60;;;5.80;;
9720;SDS011;4899;42.644;23.366;2023-01-08T07:02:15;8.23;;;6.77;;
9720;SDS011;4899;42.644;23.366;2023-01-08T07:04:42;9.50;;;7.00;;
9720;SDS011;4899;42.644;23.366;2023-01-08T07:07:08;9.37;;;6.73;;
9720;SDS011;4899;42.644;23.366;2023-01-08T07:09:36;9.77;;;6.53;;
9720;SDS011;4899;42.644;23.366;2023-01-08T07:12:01;13.97;;;7.70;;
9720;SDS011;4899;42.644;23.366;2023-01-08T07:14:27;15.37;;;9.20;;
9720;SDS011;4899;42.644;23.366;2023-01-08T07:16:52;9.07;;;7.07;;
9720;SDS011;4899;42.644;23.366;2023-01-08T07:19:17;8.27;;;6.00;;
9720;SDS011;4899;42.644;23.366;2023-01-08T07:21:43;7.90;;;6.30;;
9720;SDS011;4899;42.644;23.366;2023-01-08T07:24:08;8.67;;;6.73;;
9720;SDS011;4899;42.644;23.366;2023-01-08T07:26:34;9.10;;;7.17;;
9720;SDS011;4899;42.644;23.366;2023-01-08T07:28:59;8.40;;;6.27;;
9720;SDS011;4899;42.644;23.366;2023-01-08T07:31:25;8.47;;;5.80;;
9720;SDS011;4899;42.644;23.366;2023-01-08T07:33:50;7.07;;;5.70;;
9720;SDS011;4899;42.644;23.366;2023-01-08T07:36:16;6.97;;;5.43;;
9720;SDS011;4899;42.644;23.366;2023-01-08T07:38:46;7.77;;;5.97;;
9720;SDS011;4899;42.644;23.366;2023-01-08T07:41:13;8.43;;;6.03;;
9720;SDS011;4899;42.644;23.366;2023-01-08T07:43:39;7.37;;;6.57;;
9720;SDS011;4899;42.644;23.366;2023-01-08T07:46:05;7.33;;;5.97;;
9720;SDS011;4899;42.644;23.366;2023-01-08T07:48:30;13.23;;;8.00;;
9720;SDS011;4899;42.644;23.366;2023-01-08T07:51:02;8.87;;;6.93;;
9720;SDS011;4899;42.644;23.366;2023-01-08T07:53:29;9.30;;;7.50;;
9720;SDS011;4899;42.644;23.366;2023-01-08T07:56:01;10.03;;;7.23;;
9720;SDS011;4899;42.644;23.366;2023-01-08T07:58:28;10.47;;;7.80;;
9720;SDS011;4899;42.644;23.366;2023-01-08T08:00:54;15.00;;;9.77;;
9720;SDS011;4899;42.644;23.366;2023-01-08T08:03:20;14.63;;;11.33;;
9720;SDS011;4899;42.644;23.366;2023-01-08T08:05:46;17.30;;;12.43;;
9720;SDS011;4899;42.644;23.366;2023-01-08T08:08:12;15.97;;;12.27;;
9720;SDS011;4899;42.644;23.366;2023-01-08T08:10:38;18.10;;;14.50;;
9720;SDS011;4899;42.644;23.366;2023-01-08T08:13:04;44.07;;;30.10;;
9720;SDS011;4899;42.644;23.366;2023-01-08T08:15:31;25.67;;;17.20;;
9720;SDS011;4899;42.644;23.366;2023-01-08T08:17:57;24.17;;;18.60;;
9720;SDS011;4899;42.644;23.366;2023-01-08T08:20:23;21.13;;;15.67;;
9720;SDS011;4899;42.644;23.366;2023-01-08T08:22:49;23.37;;;17.93;;
9720;SDS011;4899;42.644;23.366;2023-01-08T08:25:14;21.30;;;16.47;;
9720;SDS011;4899;42.644;23.366;2023-01-08T08:27:41;24.33;;;17.70;;
9720;SDS011;4899;42.644;23.366;2023-01-08T08:30:07;22.83;;;17.50;;
9720;SDS011;4899;42.644;23.366;2023-01-08T08:32:33;20.87;;;16.97;;
9720;SDS011;4899;42.644;23.366;2023-01-08T08:34:58;20.90;;;16.03;;
9720;SDS011;4899;42.644;23.366;2023-01-08T08:37:25;20.67;;;15.60;;
9720;SDS011;4899;42.644;23.366;2023-01-08T08:39:50;21.83;;;16.40;;
9720;SDS011;4899;42.644;23.366;2023-01-08T08:42:16;18.30;;;14.80;;
9720;SDS011;4899;42.644;23.366;2023-01-08T08:44:41;22.73;;;16.53;;
9720;SDS011;4899;42.644;23.366;2023-01-08T08:47:07;22.83;;;16.87;;
9720;SDS011;4899;42.644;23.366;2023-01-08T08:49:33;24.07;;;17.13;;
9720;SDS011;4899;42.644;23.366;2023-01-08T08:52:00;24.13;;;18.70;;
9720;SDS011;4899;42.644;23.366;2023-01-08T08:54:26;24.27;;;18.50;;
9720;SDS011;4899;42.644;23.366;2023-01-08T08:56:51;22.90;;;18.00;;
9720;SDS011;4899;42.644;23.366;2023-01-08T08:59:17;22.90;;;19.27;;
9720;SDS011;4899;42.644;23.366;2023-01-08T09:01:42;33.57;;;22.03;;
9720;SDS011;4899;42.644;23.366;2023-01-08T09:04:07;38.47;;;26.10;;
9720;SDS011;4899;42.644;23.366;2023-01-08T09:06:33;39.20;;;27.23;;
9720;SDS011;4899;42.644;23.366;2023-01-08T09:08:58;33.97;;;26.30;;
9720;SDS011;4899;42.644;23.366;2023-01-08T09:11:24;34.57;;;26.53;;
9720;SDS011;4899;42.644;23.366;2023-01-08T09:13:50;40.90;;;28.70;;
9720;SDS011;4899;42.644;23.366;2023-01-08T09:16:15;37.30;;;26.53;;
9720;SDS011;4899;42.644;23.366;2023-01-08T09:18:40;36.13;;;27.13;;
9720;SDS011;4899;42.644;23.366;2023-01-08T09:21:06;34.47;;;27.47;;
9720;SDS011;4899;42.644;23.366;2023-01-08T09:23:33;38.40;;;27.63;;
9720;SDS011;4899;42.644;23.366;2023-01-08T09:26:00;36.23;;;26.17;;
9720;SDS011;4899;42.644;23.366;2023-01-08T09:28:26;32.93;;;24.07;;
9720;SDS011;4899;42.644;23.366;2023-01-08T09:30:51;35.77;;;26.93;;
9720;SDS011;4899;42.644;23.366;2023-01-08T09:33:17;34.27;;;25.97;;
9720;SDS011;4899;42.644;23.366;2023-01-08T09:35:43;34.97;;;25.07;;
9720;SDS011;4899;42.644;23.366;2023-01-08T09:38:08;35.53;;;26.80;;
9720;SDS011;4899;42.644;23.366;2023-01-08T09:40:38;29.30;;;23.17;;
9720;SDS011;4899;42.644;23.366;2023-01-08T09:43:09;30.77;;;24.77;;
9720;SDS011;4899;42.644;23.366;2023-01-08T09:45:42;28.43;;;20.27;;
9720;SDS011;4899;42.644;23.366;2023-01-08T09:48:13;25.20;;;21.47;;
9720;SDS011;4899;42.644;23.366;2023-01-08T09:50:41;26.10;;;20.67;;
9720;SDS011;4899;42.644;23.366;2023-01-08T09:53:11;25.27;;;19.93;;
9720;SDS011;4899;42.644;23.366;2023-01-08T09:55:38;24.73;;;19.60;;
9720;SDS011;4899;42.644;23.366;2023-01-08T09:58:04;27.30;;;20.03;;
9720;SDS011;4899;42.644;23.366;2023-01-08T10:00:43;25.73;;;20.63;;
9720;SDS011;4899;42.644;23.366;2023-01-08T10:03:09;21.37;;;19.07;;
9720;SDS011;4899;42.644;23.366;2023-01-08T10:05:36;23.97;;;18.47;;
9720;SDS011;4899;42.644;23.366;2023-01-08T10:08:02;26.17;;;19.07;;
9720;SDS011;4899;42.644;23.366;2023-01-08T10:10:28;25.20;;;18.97;;
9720;SDS011;4899;42.644;23.366;2023-01-08T10:12:55;26.47;;;18.73;;
9720;SDS011;4899;42.644;23.366;2023-01-08T10:15:22;22.33;;;18.83;;
9720;SDS011;4899;42.644;23.366;2023-01-08T10:20:14;22.30;;;19.17;;
9720;SDS011;4899;42.644;23.366;2023-01-08T10:22:45;27.50;;;22.93;;
9720;SDS011;4899;42.644;23.366;2023-01-08T10:25:16;29.97;;;24.73;;
9720;SDS011;4899;42.644;23.366;2023-01-08T10:27:50;21.27;;;16.87;;
9720;SDS011;4899;42.644;23.366;2023-01-08T10:30:22;24.37;;;16.77;;
9720;SDS011;4899;42.644;23.366;2023-01-08T10:33:00;25.13;;;17.60;;
9720;SDS011;4899;42.644;23.366;2023-01-08T10:35:36;28.33;;;22.03;;
9720;SDS011;4899;42.644;23.366;2023-01-08T10:38:03;26.80;;;22.47;;
9720;SDS011;4899;42.644;23.366;2023-01-08T10:40:45;28.70;;;22.73;;
9720;SDS011;4899;42.644;23.366;2023-01-08T10:43:14;28.77;;;22.47;;
9720;SDS011;4899;42.644;23.366;2023-01-08T10:45:55;27.10;;;23.20;;
9720;SDS011;4899;42.644;23.366;2023-01-08T10:51:24;29.03;;;22.40;;
9720;SDS011;4899;42.644;23.366;2023-01-08T10:53:52;25.33;;;21.20;;
9720;SDS011;4899;42.644;23.366;2023-01-08T10:58:46;28.03;;;21.77;;
9720;SDS011;4899;42.644;23.366;2023-01-08T11:03:47;29.27;;;20.93;;
9720;SDS011;4899;42.644;23.366;2023-01-08T11:06:18;27.37;;;20.90;;
9720;SDS011;4899;42.644;23.366;2023-01-08T11:08:48;24.80;;;20.47;;
9720;SDS011;4899;42.644;23.366;2023-01-08T11:11:31;23.90;;;20.70;;
9720;SDS011;4899;42.644;23.366;2023-01-08T11:14:02;24.60;;;19.37;;
9720;SDS011;4899;42.644;23.366;2023-01-08T11:16:33;23.43;;;19.00;;
9720;SDS011;4899;42.644;23.366;2023-01-08T11:19:01;26.00;;;18.37;;
9720;SDS011;4899;42.644;23.366;2023-01-08T11:21:28;22.07;;;18.50;;
9720;SDS011;4899;42.644;23.366;2023-01-08T11:26:47;21.23;;;17.53;;
9720;SDS011;4899;42.644;23.366;2023-01-08T11:29:20;20.43;;;16.57;;
9720;SDS011;4899;42.644;23.366;2023-01-08T11:37:39;23.00;;;17.80;;
9720;SDS011;4899;42.644;23.366;2023-01-08T11:40:13;21.13;;;17.77;;
9720;SDS011;4899;42.644;23.366;2023-01-08T11:53:23;28.47;;;21.60;;
9720;SDS011;4899;42.644;23.366;2023-01-08T11:56:13;27.00;;;21.80;;
9720;SDS011;4899;42.644;23.366;2023-01-08T12:07:14;26.70;;;22.33;;
9720;SDS011;4899;42.644;23.366;2023-01-08T12:10:36;24.57;;;20.83;;
9720;SDS011;4899;42.644;23.366;2023-01-08T12:18:03;25.30;;;21.13;;
9720;SDS011;4899;42.644;23.366;2023-01-08T12:23:46;24.67;;;20.63;;
9720;SDS011;4899;42.644;23.366;2023-01-08T12:42:28;24.77;;;21.03;;
9720;SDS011;4899;42.644;23.366;2023-01-08T12:44:55;23.00;;;20.37;;
9720;SDS011;4899;42.644;23.366;2023-01-08T12:47:25;26.13;;;21.77;;
9720;SDS011;4899;42.644;23.366;2023-01-08T12:52:34;27.33;;;19.47;;
9720;SDS011;4899;42.644;23.366;2023-01-08T13:00:51;24.03;;;19.40;;
9720;SDS011;4899;42.644;23.366;2023-01-08T13:03:44;24.83;;;20.10;;
9720;SDS011;4899;42.644;23.366;2023-01-08T13:06:11;23.33;;;20.83;;
9720;SDS011;4899;42.644;23.366;2023-01-08T13:08:40;20.50;;;18.17;;
9720;SDS011;4899;42.644;23.366;2023-01-08T13:11:12;20.57;;;18.47;;
9720;SDS011;4899;42.644;23.366;2023-01-08T13:14:09;21.93;;;19.73;;
9720;SDS011;4899;42.644;23.366;2023-01-08T13:16:37;22.07;;;19.77;;
9720;SDS011;4899;42.644;23.366;2023-01-08T13:19:05;22.77;;;20.23;;
9720;SDS011;4899;42.644;23.366;2023-01-08T13:21:33;22.80;;;20.50;;
9720;SDS011;4899;42.644;23.366;2023-01-08T13:24:04;21.33;;;18.93;;
9720;SDS011;4899;42.644;23.366;2023-01-08T13:26:45;21.67;;;19.60;;
9720;SDS011;4899;42.644;23.366;2023-01-08T13:35:28;21.67;;;19.23;;
9720;SDS011;4899;42.644;23.366;2023-01-08T13:38:11;20.80;;;18.80;;
9720;SDS011;4899;42.644;23.366;2023-01-08T13:43:14;20.20;;;18.30;;
9720;SDS011;4899;42.644;23.366;2023-01-08T13:45:40;20.17;;;18.17;;
9720;SDS011;4899;42.644;23.366;2023-01-08T13:48:22;20.90;;;18.83;;
9720;SDS011;4899;42.644;23.366;2023-01-08T13:50:50;24.60;;;21.97;;
9720;SDS011;4899;42.644;23.366;2023-01-08T13:53:16;21.73;;;18.50;;
9720;SDS011;4899;42.644;23.366;2023-01-08T13:56:26;23.30;;;21.03;;
9720;SDS011;4899;42.644;23.366;2023-01-08T13:58:37;20.27;;;18.17;;
9720;SDS011;4899;42.644;23.366;2023-01-08T14:01:08;20.27;;;18.27;;
9720;SDS011;4899;42.644;23.366;2023-01-08T14:03:36;19.43;;;17.37;;
9720;SDS011;4899;42.644;23.366;2023-01-08T14:11:27;19.43;;;17.33;;
9720;SDS011;4899;42.644;23.366;2023-01-08T14:13:56;19.53;;;17.63;;
9720;SDS011;4899;42.644;23.366;2023-01-08T14:16:22;17.93;;;16.13;;
9720;SDS011;4899;42.644;23.366;2023-01-08T14:18:48;18.63;;;16.83;;
9720;SDS011;4899;42.644;23.366;2023-01-08T14:21:14;20.07;;;17.97;;
9720;SDS011;4899;42.644;23.366;2023-01-08T14:23:45;22.33;;;19.90;;
9720;SDS011;4899;42.644;23.366;2023-01-08T14:26:18;23.23;;;19.30;;
9720;SDS011;4899;42.644;23.366;2023-01-08T14:28:51;29.43;;;21.20;;
9720;SDS011;4899;42.644;23.366;2023-01-08T14:31:21;26.53;;;21.23;;
9720;SDS011;4899;42.644;23.366;2023-01-08T14:33:49;27.13;;;22.63;;
9720;SDS011;4899;42.644;23.366;2023-01-08T14:36:16;31.10;;;22.70;;
9720;SDS011;4899;42.644;23.366;2023-01-08T14:38:42;31.60;;;22.80;;
9720;SDS011;4899;42.644;23.366;2023-01-08T14:41:14;30.20;;;22.17;;
9720;SDS011;4899;42.644;23.366;2023-01-08T14:43:42;28.53;;;21.93;;
9720;SDS011;4899;42.644;23.366;2023-01-08T14:46:14;24.43;;;21.50;;
9720;SDS011;4899;42.644;23.366;2023-01-08T14:48:41;31.57;;;22.37;;
9720;SDS011;4899;42.644;23.366;2023-01-08T14:51:09;24.30;;;19.97;;
9720;SDS011;4899;42.644;23.366;2023-01-08T14:53:41;24.43;;;18.80;;
9720;SDS011;4899;42.644;23.366;2023-01-08T14:56:17;24.83;;;19.67;;
9720;SDS011;4899;42.644;23.366;2023-01-08T14:58:46;29.40;;;20.27;;
9720;SDS011;4899;42.644;23.366;2023-01-08T15:01:16;24.73;;;21.03;;
9720;SDS011;4899;42.644;23.366;2023-01-08T15:03:45;29.57;;;21.87;;
9720;SDS011;4899;42.644;23.366;2023-01-08T15:06:22;27.50;;;22.77;;
9720;SDS011;4899;42.644;23.366;2023-01-08T15:08:49;28.63;;;23.63;;
9720;SDS011;4899;42.644;23.366;2023-01-08T15:13:44;30.80;;;23.27;;
9720;SDS011;4899;42.644;23.366;2023-01-08T15:16:15;29.77;;;23.03;;
9720;SDS011;4899;42.644;23.366;2023-01-08T15:21:49;29.93;;;22.03;;
9720;SDS011;4899;42.644;23.366;2023-01-08T15:24:23;26.43;;;21.77;;
9720;SDS011;4899;42.644;23.366;2023-01-08T15:26:58;27.23;;;22.20;;
9720;SDS011;4899;42.644;23.366;2023-01-08T15:29:33;34.00;;;23.63;;
9720;SDS011;4899;42.644;23.366;2023-01-08T15:34:40;33.43;;;23.27;;
9720;SDS011;4899;42.644;23.366;2023-01-08T15:37:06;29.17;;;22.90;;
9720;SDS011;4899;42.644;23.366;2023-01-08T15:39:32;32.37;;;22.50;;
9720;SDS011;4899;42.644;23.366;2023-01-08T15:42:04;33.30;;;23.13;;
9720;SDS011;4899;42.644;23.366;2023-01-08T15:44:53;30.10;;;22.43;;
9720;SDS011;4899;42.644;23.366;2023-01-08T15:47:18;22.93;;;16.17;;
9720;SDS011;4899;42.644;23.366;2023-01-08T15:49:44;18.67;;;16.00;;
9720;SDS011;4899;42.644;23.366;2023-01-08T15:52:09;20.50;;;16.87;;
9720;SDS011;4899;42.644;23.366;2023-01-08T15:54:35;23.40;;;17.53;;
9720;SDS011;4899;42.644;23.366;2023-01-08T15:57:02;23.00;;;16.97;;
9720;SDS011;4899;42.644;23.366;2023-01-08T15:59:30;23.30;;;16.63;;
9720;SDS011;4899;42.644;23.366;2023-01-08T16:02:00;27.83;;;18.87;;
9720;SDS011;4899;42.644;23.366;2023-01-08T16:04:25;28.13;;;19.73;;
9720;SDS011;4899;42.644;23.366;2023-01-08T16:06:50;24.57;;;19.80;;
9720;SDS011;4899;42.644;23.366;2023-01-08T16:09:16;31.27;;;20.07;;
9720;SDS011;4899;42.644;23.366;2023-01-08T16:11:41;24.47;;;19.27;;
9720;SDS011;4899;42.644;23.366;2023-01-08T16:14:07;28.93;;;20.20;;
9720;SDS011;4899;42.644;23.366;2023-01-08T16:16:34;27.33;;;21.80;;
9720;SDS011;4899;42.644;23.366;2023-01-08T16:18:59;30.07;;;22.07;;
9720;SDS011;4899;42.644;23.366;2023-01-08T16:21:25;26.57;;;20.83;;
9720;SDS011;4899;42.644;23.366;2023-01-08T16:23:50;28.83;;;21.27;;
9720;SDS011;4899;42.644;23.366;2023-01-08T16:26:16;26.60;;;21.07;;
9720;SDS011;4899;42.644;23.366;2023-01-08T16:28:41;31.07;;;24.43;;
9720;SDS011;4899;42.644;23.366;2023-01-08T16:31:07;36.87;;;26.57;;
9720;SDS011;4899;42.644;23.366;2023-01-08T16:33:33;38.20;;;25.37;;
9720;SDS011;4899;42.644;23.366;2023-01-08T16:35:59;33.97;;;24.23;;
9720;SDS011;4899;42.644;23.366;2023-01-08T16:38:26;30.57;;;22.73;;
9720;SDS011;4899;42.644;23.366;2023-01-08T16:40:54;26.97;;;18.47;;
9720;SDS011;4899;42.644;23.366;2023-01-08T16:43:24;20.33;;;16.77;;
9720;SDS011;4899;42.644;23.366;2023-01-08T16:45:51;30.80;;;19.60;;
9720;SDS011;4899;42.644;23.366;2023-01-08T16:48:18;19.33;;;15.57;;
9720;SDS011;4899;42.644;23.366;2023-01-08T16:50:44;21.37;;;15.67;;
9720;SDS011;4899;42.644;23.366;2023-01-08T16:53:10;21.20;;;14.47;;
9720;SDS011;4899;42.644;23.366;2023-01-08T16:55:36;18.23;;;13.87;;
9720;SDS011;4899;42.644;23.366;2023-01-08T16:58:03;20.47;;;12.93;;
9720;SDS011;4899;42.644;23.366;2023-01-08T17:00:29;17.77;;;11.17;;